Time;durP1;ratioP1;P1;durP2;ratioP2;P2;SDS_P1;SDS_P2;PMS_P1;PMS_P2;Temp;Humidity;BMP_temperature;BMP_pressure;BME280_temperature;BME280_humidity;BME280_pressure;Samples;Min_cycle;Max_cycle;Signal;HPM_P1;HPM_P2
2020/12/01 00:01:32;;;;;;;39.20;28.17;;;-1.60;99.90;;;-0.68;80.20;98165.47;5292201;28;20742;-79
2020/12/01 00:04:04;;;;;;;39.90;27.33;;;-1.50;99.90;;;-0.55;80.10;98165.13;5280264;28;20229;-77
2020/12/01 00:06:36;;;;;;;40.43;28.53;;;-1.40;99.90;;;-0.43;80.31;98164.63;5289491;28;20211;-78
2020/12/01 00:09:08;;;;;;;40.73;28.03;;;-1.30;99.90;;;-0.37;80.66;98175.28;5292424;28;20811;-78
2020/12/01 00:11:41;;;;;;;41.73;27.87;;;-1.10;99.90;;;-0.33;80.74;98174.91;5291373;28;20223;-79
2020/12/01 00:14:13;;;;;;;37.97;27.70;;;-1.10;99.90;;;-0.29;80.36;98164.44;5291802;28;20196;-79
2020/12/01 00:16:46;;;;;;;38.87;27.77;;;-1.00;99.90;;;-0.25;80.98;98164.91;5291546;28;20196;-78
2020/12/01 00:19:18;;;;;;;36.73;27.57;;;-1.00;99.90;;;-0.21;80.35;98157.69;5289278;28;20217;-78
2020/12/01 00:21:50;;;;;;;37.20;27.90;;;-1.00;99.90;;;-0.15;81.51;98169.25;5289871;28;20219;-77
2020/12/01 00:24:22;;;;;;;38.33;27.53;;;-1.00;99.90;;;-0.12;80.37;98162.03;5290296;28;20199;-79
2020/12/01 00:26:55;;;;;;;37.20;27.70;;;-1.00;99.90;;;-0.16;81.02;98167.47;5287684;28;20219;-78
2020/12/01 00:29:27;;;;;;;40.50;29.63;;;-1.00;99.90;;;-0.16;80.27;98166.59;5285555;28;20314;-79
2020/12/01 00:31:59;;;;;;;40.27;29.30;;;-1.10;99.90;;;-0.22;80.25;98159.31;5291656;28;20731;-78
2020/12/01 00:34:31;;;;;;;38.47;28.57;;;-1.10;99.90;;;-0.29;81.04;98167.81;5289158;28;20203;-78
2020/12/01 00:37:03;;;;;;;38.27;29.33;;;-1.20;99.90;;;-0.30;80.74;98172.69;5290878;28;20567;-78
2020/12/01 00:39:35;;;;;;;39.17;29.20;;;-1.20;99.90;;;-0.35;81.09;98167.19;5288720;28;20195;-79
2020/12/01 00:42:09;;;;;;;38.13;28.83;;;-1.30;99.90;;;-0.39;81.30;98155.06;5289918;28;20199;-78
2020/12/01 00:44:41;;;;;;;38.27;27.87;;;-1.20;99.90;;;-0.42;81.91;98161.41;5288202;28;20199;-80
2020/12/01 00:47:13;;;;;;;39.00;29.23;;;-1.30;99.90;;;-0.39;82.36;98152.56;5288250;28;20223;-78
2020/12/01 00:49:45;;;;;;;38.87;29.27;;;-1.20;99.90;;;-0.43;82.66;98144.53;5287621;28;20582;-79
2020/12/01 00:52:17;;;;;;;42.73;29.83;;;-1.30;99.90;;;-0.37;81.85;98146.09;5286761;28;20195;-78
2020/12/01 00:54:49;;;;;;;38.53;28.97;;;-1.20;99.90;;;-0.48;83.69;98142.47;5288969;28;20213;-78
2020/12/01 00:57:22;;;;;;;43.90;30.07;;;-1.30;99.90;;;-0.47;83.33;98134.19;5281161;28;20204;-80
2020/12/01 00:59:54;;;;;;;42.50;30.03;;;-1.30;99.90;;;-0.50;83.79;98121.31;5289807;28;20226;-80
2020/12/01 01:02:26;;;;;;;40.27;29.50;;;-1.30;99.90;;;-0.47;84.16;98118.22;5288630;28;20199;-78
2020/12/01 01:04:58;;;;;;;37.30;27.90;;;-1.30;99.90;;;-0.42;82.94;98116.22;5289359;28;20199;-79
2020/12/01 01:07:30;;;;;;;39.47;28.17;;;-1.30;99.90;;;-0.42;84.18;98112.06;5289583;28;20223;-80
2020/12/01 01:12:35;;;;;;;40.87;28.43;;;-1.20;99.90;;;-0.38;84.77;98103.22;5195856;28;20217;-80
2020/12/01 01:15:07;;;;;;;38.07;26.97;;;-1.20;99.90;;;-0.42;84.32;98088.59;5204631;28;20210;-80
2020/12/01 01:17:39;;;;;;;36.43;27.27;;;-1.20;99.90;;;-0.44;84.97;98087.53;5201813;28;20192;-80
2020/12/01 01:20:12;;;;;;;41.33;28.83;;;-1.30;99.90;;;-0.50;85.02;98076.13;5206335;28;20653;-81
2020/12/01 01:22:44;;;;;;;38.60;26.67;;;-1.30;99.90;;;-0.50;84.84;98070.22;5224181;28;20206;-81
2020/12/01 01:25:17;;;;;;;38.33;27.87;;;-1.30;99.90;;;-0.50;85.53;98068.59;5225378;28;20201;-81
2020/12/01 01:27:50;;;;;;;37.63;27.60;;;-1.30;99.90;;;-0.51;85.10;98056.78;5220675;28;20316;-81
2020/12/01 01:30:23;;;;;;;37.13;27.17;;;-1.20;99.90;;;-0.47;85.07;98052.97;5225362;28;20248;-81
2020/12/01 01:32:55;;;;;;;39.30;26.30;;;-1.20;99.90;;;-0.42;85.19;98039.25;5225194;28;20209;-80
2020/12/01 01:35:27;;;;;;;35.67;24.77;;;-1.10;99.90;;;-0.31;85.53;98040.38;5225019;28;20199;-81
2020/12/01 01:37:59;;;;;;;35.80;25.13;;;-1.10;99.90;;;-0.22;85.27;98043.78;5225922;28;20199;-80
2020/12/01 01:40:32;;;;;;;37.67;26.83;;;-1.00;99.90;;;-0.16;86.05;98036.88;5226845;28;20243;-81
2020/12/01 01:43:05;;;;;;;36.47;26.67;;;-0.90;99.90;;;-0.15;85.33;98021.06;5223545;28;20198;-80
2020/12/01 01:45:41;;;;;;;37.07;24.57;;;-1.00;99.90;;;-0.14;86.23;98014.41;5224118;28;20645;-80
2020/12/01 01:48:20;;;;;;;37.67;27.13;;;-0.90;99.90;;;-0.07;86.32;98002.63;5226066;28;21319;-81
2020/12/01 01:50:59;;;;;;;39.73;25.93;;;-0.90;99.90;;;-0.11;86.37;98014.75;5226740;28;20690;-81
2020/12/01 01:53:35;;;;;;;34.47;24.73;;;-0.90;99.90;;;-0.07;86.81;98007.66;5224871;28;20677;-81
2020/12/01 01:56:11;;;;;;;35.40;25.47;;;-0.90;99.90;;;0.07;86.55;98000.59;5225595;28;20207;-81
2020/12/01 01:58:46;;;;;;;35.70;25.23;;;-0.80;99.90;;;-0.02;86.64;97998.06;5225658;28;21209;-81
2020/12/01 02:01:25;;;;;;;35.90;25.17;;;-0.90;99.90;;;-0.07;86.88;98002.63;5228043;28;20214;-81
2020/12/01 02:03:59;;;;;;;35.83;24.40;;;-0.90;99.90;;;-0.07;86.48;98000.13;5229100;28;20204;-81
2020/12/01 02:06:36;;;;;;;35.13;24.93;;;-0.80;99.90;;;0.01;86.76;97989.94;5228686;28;20209;-81
2020/12/01 02:09:13;;;;;;;35.10;25.30;;;-0.70;99.90;;;0.06;87.24;97981.22;5224900;28;20665;-81
2020/12/01 02:11:47;;;;;;;32.83;23.67;;;-0.70;99.90;;;0.07;87.07;97963.81;5229509;28;20230;-80
2020/12/01 02:14:24;;;;;;;35.43;24.07;;;-0.60;99.90;;;0.11;87.95;97968.38;5226310;28;20205;-80
2020/12/01 02:16:59;;;;;;;34.43;23.27;;;-0.60;99.90;;;0.19;88.01;97966.63;5227231;28;20207;-81
2020/12/01 02:19:31;;;;;;;32.53;23.73;;;-0.50;99.90;;;0.17;88.06;97953.94;5228797;28;20202;-81
2020/12/01 02:22:05;;;;;;;35.40;23.63;;;-0.50;99.90;;;0.23;88.30;97953.66;5229217;28;20237;-81
2020/12/01 02:24:37;;;;;;;38.63;25.33;;;-0.50;99.90;;;0.20;87.61;97940.75;5226900;28;20200;-81
2020/12/01 02:27:13;;;;;;;37.27;25.40;;;-0.50;99.90;;;0.18;88.60;97938.09;5227739;28;20232;-81
2020/12/01 02:29:48;;;;;;;35.03;24.03;;;-0.50;99.90;;;0.25;88.63;97939.56;5229663;28;20199;-81
2020/12/01 02:32:24;;;;;;;34.53;23.63;;;-0.50;99.90;;;0.32;88.58;97929.41;5227104;28;20223;-80
2020/12/01 02:34:59;;;;;;;37.53;24.77;;;-0.40;99.90;;;0.36;88.47;97916.38;5229616;28;20225;-80
2020/12/01 02:37:31;;;;;;;36.57;25.17;;;-0.40;99.90;;;0.34;88.70;97907.78;5230003;28;20215;-80
2020/12/01 02:40:05;;;;;;;35.43;24.40;;;-0.40;99.90;;;0.43;88.14;97902.78;5228611;28;20203;-81
2020/12/01 02:42:38;;;;;;;35.37;24.13;;;-0.30;99.90;;;0.47;88.58;97898.94;5229128;28;20636;-80
2020/12/01 02:45:12;;;;;;;35.00;24.33;;;-0.30;99.90;;;0.50;88.97;97890.06;5228491;28;20692;-81
2020/12/01 02:47:47;;;;;;;33.67;22.53;;;-0.20;99.90;;;0.52;89.32;97880.16;5223800;28;20214;-80
2020/12/01 02:50:18;;;;;;;33.00;23.00;;;-0.10;99.90;;;0.60;89.14;97884.25;5229759;28;20208;-81
2020/12/01 02:52:50;;;;;;;33.13;22.80;;;-0.10;99.90;;;0.64;89.28;97878.81;5228465;28;20205;-81
2020/12/01 02:55:22;;;;;;;31.90;22.60;;;0.00;99.90;;;0.65;89.29;97878.94;5229891;28;20205;-81
2020/12/01 02:57:55;;;;;;;31.90;22.07;;;0.00;99.90;;;0.67;89.92;97866.50;5226985;28;20207;-82
2020/12/01 03:00:27;;;;;;;37.20;26.43;;;0.00;99.90;;;0.66;89.55;97872.28;5227042;28;20220;-81
2020/12/01 03:02:59;;;;;;;34.03;24.57;;;0.00;99.90;;;0.66;90.04;97862.25;5226575;28;20667;-81
2020/12/01 03:05:31;;;;;;;39.70;26.87;;;-0.10;99.90;;;0.64;89.06;97852.03;5228226;28;20203;-81
2020/12/01 03:08:04;;;;;;;37.90;25.37;;;-0.10;99.90;;;0.61;90.18;97853.38;5227589;28;20231;-81
2020/12/01 03:10:35;;;;;;;35.23;24.40;;;-0.10;99.90;;;0.62;89.97;97847.59;5229452;28;20604;-81
2020/12/01 03:13:08;;;;;;;35.07;24.60;;;-0.10;99.90;;;0.60;90.23;97839.91;5226125;28;20205;-81
2020/12/01 03:15:42;;;;;;;34.97;24.57;;;0.00;99.90;;;0.64;89.63;97834.41;5229549;28;20212;-81
2020/12/01 03:18:14;;;;;;;38.57;25.23;;;0.00;99.90;;;0.66;90.32;97827.03;5228782;28;20199;-80
2020/12/01 03:20:46;;;;;;;34.83;24.40;;;0.00;99.90;;;0.66;90.53;97829.53;5228360;28;20224;-80
2020/12/01 03:23:18;;;;;;;34.70;24.70;;;0.10;99.90;;;0.66;90.59;97825.41;5228632;28;20204;-81
2020/12/01 03:25:50;;;;;;;36.30;24.87;;;0.10;99.90;;;0.68;90.69;97828.03;5228410;28;20820;-80
2020/12/01 03:28:23;;;;;;;35.70;25.37;;;0.10;99.90;;;0.73;90.72;97826.84;5228738;28;20230;-79
2020/12/01 03:30:55;;;;;;;37.97;24.10;;;0.10;99.90;;;0.70;90.96;97824.03;5229475;28;20224;-79
2020/12/01 03:33:27;;;;;;;33.90;24.27;;;0.10;99.90;;;0.73;91.16;97815.91;5227818;28;20216;-79
2020/12/01 03:35:59;;;;;;;36.27;23.93;;;0.20;99.90;;;0.74;91.10;97811.00;5224949;28;20292;-79
2020/12/01 03:38:31;;;;;;;39.10;24.33;;;0.20;99.90;;;0.74;91.44;97811.00;5228277;28;20215;-79
2020/12/01 03:41:04;;;;;;;35.70;23.23;;;0.20;99.90;;;0.78;91.56;97802.13;5227249;28;20229;-80
2020/12/01 03:43:37;;;;;;;39.00;26.90;;;0.20;99.90;;;0.80;91.52;97796.50;5228608;28;20691;-80
2020/12/01 03:46:09;;;;;;;34.60;24.73;;;0.20;99.90;;;0.76;91.94;97789.41;5227566;28;20664;-80
2020/12/01 03:48:41;;;;;;;36.40;25.37;;;0.20;99.90;;;0.75;92.22;97786.75;5227328;28;20229;-81
2020/12/01 03:51:14;;;;;;;37.63;24.63;;;0.20;99.90;;;0.73;92.70;97789.13;5221907;28;20217;-80
2020/12/01 03:53:46;;;;;;;35.70;24.53;;;0.20;99.90;;;0.77;92.60;97791.16;5229320;28;20205;-81
2020/12/01 03:56:19;;;;;;;34.97;23.63;;;0.20;99.90;;;0.78;92.49;97777.88;5225841;28;20203;-82
2020/12/01 03:58:52;;;;;;;36.03;23.73;;;0.30;99.90;;;0.81;92.88;97784.81;5228793;28;20196;-82
2020/12/01 04:01:24;;;;;;;34.93;23.63;;;0.30;99.90;;;0.82;92.83;97779.03;5228098;28;20235;-81
2020/12/01 04:03:56;;;;;;;37.43;24.53;;;0.30;99.90;;;0.84;92.91;97775.03;5227433;28;20208;-81
2020/12/01 04:06:28;;;;;;;36.83;23.70;;;0.30;99.90;;;0.86;93.15;97773.56;5226484;28;20585;-81
2020/12/01 04:09:00;;;;;;;35.93;24.77;;;0.30;99.90;;;0.86;93.46;97761.84;5226954;28;20217;-81
2020/12/01 04:11:34;;;;;;;42.40;26.23;;;0.30;99.90;;;0.87;93.22;97762.75;5228877;28;20247;-81
2020/12/01 04:14:07;;;;;;;37.47;24.33;;;0.40;99.90;;;0.89;93.84;97771.31;5227535;28;20197;-81
2020/12/01 04:16:39;;;;;;;37.10;24.17;;;0.40;99.90;;;0.90;93.17;97763.91;5228979;28;20193;-81
2020/12/01 04:19:11;;;;;;;39.90;24.77;;;0.40;99.90;;;0.89;93.70;97763.78;5231639;28;20285;-81
2020/12/01 04:21:43;;;;;;;38.47;24.87;;;0.40;99.90;;;0.89;94.05;97761.25;5218222;28;20220;-80
2020/12/01 04:24:15;;;;;;;34.87;23.33;;;0.40;99.90;;;0.90;94.35;97758.88;5222259;28;20909;-80
2020/12/01 04:26:47;;;;;;;38.83;24.97;;;0.40;99.90;;;0.88;94.10;97756.94;5228723;28;20208;-80
2020/12/01 04:29:20;;;;;;;42.77;28.03;;;0.40;99.90;;;0.90;94.26;97755.47;5228523;28;20224;-80
2020/12/01 04:31:52;;;;;;;43.37;27.27;;;0.50;99.90;;;0.90;94.35;97752.94;5231887;28;20217;-80
2020/12/01 04:34:24;;;;;;;42.33;26.07;;;0.40;99.90;;;0.93;94.52;97748.19;5232607;28;20201;-81
2020/12/01 04:36:57;;;;;;;40.30;25.77;;;0.40;99.90;;;0.93;94.58;97752.34;5214703;28;20208;-80
2020/12/01 04:39:29;;;;;;;31.30;21.50;;;0.40;99.90;;;0.93;95.12;97747.31;5230101;28;20193;-81
2020/12/01 04:42:04;;;;;;;34.60;22.37;;;0.50;99.90;;;0.94;94.72;97744.94;5231169;28;20232;-81
2020/12/01 04:44:41;;;;;;;30.53;21.63;;;0.40;99.90;;;0.99;94.38;97738.69;5229061;28;20257;-81
2020/12/01 04:47:20;;;;;;;32.70;22.30;;;0.50;99.90;;;0.99;94.92;97740.34;5225786;28;20188;-80
2020/12/01 04:49:58;;;;;;;31.63;20.97;;;0.50;99.90;;;0.98;94.88;97746.13;5229911;28;20211;-81
2020/12/01 04:53:03;;;;;;;32.47;21.30;;;0.50;99.90;;;1.01;95.27;97736.34;5227547;28;20220;-81
2020/12/01 04:55:58;;;;;;;28.93;20.10;;;0.50;99.90;;;1.03;95.29;97734.81;5225945;28;20328;-80
2020/12/01 04:59:22;;;;;;;28.10;19.77;;;0.50;99.90;;;1.04;95.50;97729.94;5228071;28;20211;-82
2020/12/01 05:02:31;;;;;;;27.53;18.90;;;0.60;99.90;;;1.03;95.65;97725.66;5215913;28;20233;-81
2020/12/01 05:05:26;;;;;;;27.33;17.93;;;0.60;99.90;;;1.02;95.69;97730.53;5214539;28;20212;-81
2020/12/01 05:08:34;;;;;;;32.83;20.97;;;0.50;99.90;;;0.99;95.74;97723.59;5214043;28;20225;-81
2020/12/01 05:11:18;;;;;;;28.77;19.77;;;0.60;99.90;;;1.00;95.96;97724.47;5226567;28;20233;-82
2020/12/01 05:13:59;;;;;;;29.93;20.57;;;0.60;99.90;;;1.00;96.31;97725.38;5228536;28;20214;-80
2020/12/01 05:16:47;;;;;;;35.17;23.57;;;0.50;99.90;;;1.00;96.25;97716.94;5227228;28;20650;-80
2020/12/01 05:19:49;;;;;;;34.40;22.80;;;0.60;99.90;;;0.99;96.63;97708.50;5227221;28;20201;-80
2020/12/01 05:22:22;;;;;;;35.20;23.47;;;0.50;99.90;;;1.03;96.29;97715.59;5193068;28;20224;-79
2020/12/01 05:24:54;;;;;;;33.57;23.73;;;0.50;99.90;;;0.99;96.35;97710.13;5225333;28;20695;-80
2020/12/01 05:27:30;;;;;;;32.93;21.37;;;0.60;99.90;;;1.01;96.56;97708.66;5225103;28;20575;-79
2020/12/01 05:30:11;;;;;;;39.47;25.13;;;0.60;99.90;;;1.04;96.67;97711.44;5206912;28;20300;-80
2020/12/01 05:32:54;;;;;;;34.43;21.97;;;0.60;99.90;;;1.00;96.91;97715.31;5221662;28;20207;-81
2020/12/01 05:35:30;;;;;;;31.90;20.97;;;0.60;99.90;;;1.01;96.76;97708.66;5228792;28;20197;-79
2020/12/01 05:38:14;;;;;;;29.90;21.23;;;0.50;99.90;;;1.03;96.64;97707.13;5234371;28;20272;-81
2020/12/01 05:40:52;;;;;;;29.80;20.47;;;0.50;99.90;;;1.04;96.74;97706.41;5237251;28;20219;-81
2020/12/01 05:43:31;;;;;;;31.70;21.13;;;0.60;99.90;;;1.06;97.10;97702.38;5235226;28;20209;-81
2020/12/01 05:46:12;;;;;;;29.33;20.13;;;0.60;99.90;;;1.06;96.97;97708.31;5246236;28;20284;-81
2020/12/01 05:49:00;;;;;;;29.07;19.80;;;0.60;99.90;;;1.07;97.00;97707.56;5225914;28;20221;-81
2020/12/01 05:51:42;;;;;;;33.20;21.60;;;0.60;99.90;;;1.07;97.21;97707.56;5228234;28;20217;-82
2020/12/01 05:54:18;;;;;;;34.60;23.73;;;0.60;99.90;;;1.08;96.83;97713.47;5225186;28;20197;-81
2020/12/01 05:56:53;;;;;;;36.73;25.10;;;0.60;99.90;;;1.09;96.95;97707.72;5218353;28;20201;-80
2020/12/01 05:59:29;;;;;;;42.47;27.37;;;0.60;99.90;;;1.08;96.96;97708.44;5231937;28;20653;-82
2020/12/01 06:02:05;;;;;;;39.90;27.00;;;0.50;99.90;;;1.06;97.03;97705.81;5231136;28;20232;-82
2020/12/01 06:04:38;;;;;;;41.37;27.53;;;0.60;99.90;;;1.07;97.19;97709.22;5224949;28;20207;-81
2020/12/01 06:07:17;;;;;;;42.70;28.73;;;0.60;99.90;;;1.05;97.41;97708.16;5228028;28;20264;-82
2020/12/01 06:10:16;;;;;;;42.33;28.57;;;0.60;99.90;;;1.08;96.78;97703.41;5228386;28;20222;-82
2020/12/01 06:13:28;;;;;;;48.87;30.00;;;0.60;99.90;;;1.08;97.01;97709.31;5210994;28;20204;-82
2020/12/01 06:16:29;;;;;;;41.60;27.33;;;0.60;99.90;;;1.07;97.53;97712.59;5199815;28;20680;-82
2020/12/01 06:19:14;;;;;;;44.13;28.77;;;0.60;99.90;;;1.11;97.19;97713.75;5223283;28;20200;-82
2020/12/01 06:22:43;;;;;;;42.97;28.87;;;0.60;99.90;;;1.09;97.17;97715.28;5228391;28;20223;-80
2020/12/01 06:25:30;;;;;;;40.70;26.20;;;0.60;99.90;;;1.08;97.19;97714.34;5226493;28;20207;-80
2020/12/01 06:28:48;;;;;;;43.07;25.73;;;0.60;99.90;;;1.08;97.35;97711.84;5229193;28;20225;-80
2020/12/01 06:31:52;;;;;;;35.87;24.50;;;0.60;99.90;;;1.10;97.02;97712.00;5229148;28;20228;-81
2020/12/01 06:34:48;;;;;;;35.13;24.67;;;0.60;99.90;;;1.11;97.42;97711.25;5236810;28;20279;-83
2020/12/01 06:37:27;;;;;;;35.23;23.33;;;0.60;99.90;;;1.09;97.17;97705.22;5244686;28;20283;-83
2020/12/01 06:40:23;;;;;;;35.03;22.30;;;0.60;99.90;;;1.13;97.36;97703.09;5239246;28;20220;-83
2020/12/01 06:43:03;;;;;;;31.37;20.83;;;0.60;99.90;;;1.13;97.46;97708.13;5228001;28;20201;-82
2020/12/01 06:45:41;;;;;;;36.13;22.90;;;0.60;99.90;;;1.13;97.39;97707.25;5230319;28;20614;-82
2020/12/01 06:48:18;;;;;;;35.20;22.13;;;0.70;99.90;;;1.13;97.06;97704.72;5236007;28;20243;-82
2020/12/01 06:50:55;;;;;;;33.90;21.30;;;0.60;99.90;;;1.15;97.41;97700.72;5239086;28;20236;-82
2020/12/01 06:53:31;;;;;;;34.07;23.57;;;0.70;99.90;;;1.16;97.88;97699.97;5234376;28;20210;-82
2020/12/01 06:56:17;;;;;;;38.07;24.60;;;0.70;99.90;;;1.17;97.66;97704.25;5229848;28;20196;-82
2020/12/01 06:58:50;;;;;;;32.77;22.33;;;0.70;99.90;;;1.16;97.36;97702.47;5232377;28;20215;-84
2020/12/01 07:01:30;;;;;;;33.43;23.50;;;0.70;99.90;;;1.17;97.35;97699.19;5232372;28;20288;-84
2020/12/01 07:04:27;;;;;;;33.47;22.60;;;0.70;99.90;;;1.18;97.41;97706.03;5246293;28;20520;-84
2020/12/01 07:07:03;;;;;;;33.73;22.43;;;0.70;99.90;;;1.22;97.61;97703.03;5234237;28;20206;-84
2020/12/01 07:09:50;;;;;;;36.20;24.63;;;0.70;99.90;;;1.19;97.76;97697.72;5234266;28;20315;-84
2020/12/01 07:12:37;;;;;;;32.87;23.43;;;0.70;99.90;;;1.19;98.03;97710.31;5228065;28;20234;-83
2020/12/01 07:15:17;;;;;;;31.20;22.43;;;0.70;99.90;;;1.19;97.93;97702.75;5240632;28;20228;-84
2020/12/01 07:17:59;;;;;;;30.30;21.83;;;0.70;99.90;;;1.20;97.83;97696.97;5235638;28;20211;-83
2020/12/01 07:20:46;;;;;;;32.83;23.57;;;0.70;99.90;;;1.23;97.98;97701.38;5236385;28;20220;-82
2020/12/01 07:23:30;;;;;;;32.90;23.30;;;0.70;99.90;;;1.25;97.17;97697.38;5233258;28;20209;-83
2020/12/01 07:26:26;;;;;;;32.30;23.97;;;0.70;99.90;;;1.23;97.77;97699.78;5240424;28;20213;-84
2020/12/01 07:29:20;;;;;;;38.43;26.57;;;0.70;99.90;;;1.22;98.03;97697.13;5241911;28;20217;-83
2020/12/01 07:32:05;;;;;;;32.23;24.53;;;0.70;99.90;;;1.21;98.50;97703.78;5234925;28;20225;-84
2020/12/01 07:34:37;;;;;;;36.77;27.70;;;0.70;99.90;;;1.23;97.98;97704.81;5243616;28;20269;-84
2020/12/01 07:38:02;;;;;;;35.97;26.27;;;0.70;99.90;;;1.25;98.04;97707.47;5242170;28;20197;-84
2020/12/01 07:40:46;;;;;;;37.23;26.87;;;0.70;99.90;;;1.28;97.56;97707.72;5165837;28;20239;-83
2020/12/01 07:43:22;;;;;;;43.70;29.67;;;0.70;99.90;;;1.28;97.21;97706.09;5245785;28;20268;-84
2020/12/01 07:46:03;;;;;;;32.57;25.73;;;0.70;99.90;;;1.25;97.47;97710.84;5241343;28;20321;-84
2020/12/01 07:48:35;;;;;;;31.43;22.60;;;0.70;99.90;;;1.25;98.05;97708.34;5243853;28;20212;-83
2020/12/01 07:51:11;;;;;;;25.57;19.37;;;0.70;99.90;;;1.22;97.95;97712.22;5239414;28;20244;-83
2020/12/01 07:53:43;;;;;;;25.10;18.53;;;0.70;99.90;;;1.26;97.55;97704.19;5236337;28;20628;-83
2020/12/01 07:56:17;;;;;;;27.70;18.80;;;0.70;99.90;;;1.26;97.76;97707.59;5244365;28;20190;-85
2020/12/01 07:59:02;;;;;;;32.23;20.73;;;0.70;99.90;;;1.30;97.22;97717.19;5239249;28;20216;-84
2020/12/01 08:01:35;;;;;;;30.13;20.23;;;0.80;99.90;;;1.31;97.96;97708.00;5240858;28;20241;-84
2020/12/01 08:04:13;;;;;;;27.03;18.17;;;0.80;99.90;;;1.34;97.26;97716.75;5238226;28;20280;-82
2020/12/01 08:06:46;;;;;;;25.27;17.53;;;0.80;99.90;;;1.35;97.97;97710.94;5236210;28;20264;-83
2020/12/01 08:09:22;;;;;;;23.43;16.93;;;0.90;99.90;;;1.37;97.43;97716.09;5238063;28;20231;-84
2020/12/01 08:11:56;;;;;;;20.60;15.83;;;0.90;99.90;;;1.44;97.19;97713.41;5241037;28;20217;-83
2020/12/01 08:14:28;;;;;;;23.23;16.90;;;0.90;99.90;;;1.43;97.19;97715.75;5240892;28;20209;-84
2020/12/01 08:17:07;;;;;;;36.10;25.80;;;0.90;99.90;;;1.43;97.66;97720.81;5245121;28;20212;-84
2020/12/01 08:19:39;;;;;;;30.23;23.87;;;0.90;99.90;;;1.45;98.09;97719.31;5246063;28;20198;-84
2020/12/01 08:22:19;;;;;;;32.17;23.00;;;0.90;99.90;;;1.44;97.44;97720.06;5244538;28;20227;-84
2020/12/01 08:25:01;;;;;;;30.87;22.03;;;0.90;99.90;;;1.44;97.62;97726.00;5247844;28;20220;-84
2020/12/01 08:27:43;;;;;;;30.57;22.23;;;0.90;99.90;;;1.46;97.32;97721.06;5244475;28;20217;-81
2020/12/01 08:30:25;;;;;;;25.93;18.90;;;0.90;99.90;;;1.47;97.08;97723.75;5246563;28;20223;-84
2020/12/01 08:33:08;;;;;;;27.03;19.43;;;0.90;99.90;;;1.50;97.43;97726.53;5246697;28;20211;-83
2020/12/01 08:35:51;;;;;;;28.10;20.43;;;0.90;99.90;;;1.46;97.34;97718.56;5244672;28;20287;-83
2020/12/01 08:38:45;;;;;;;28.70;21.47;;;0.90;99.90;;;1.47;97.77;97725.38;5233709;28;20210;-83
2020/12/01 08:41:36;;;;;;;27.13;20.13;;;0.90;99.90;;;1.44;97.46;97723.47;5239642;28;20645;-84
2020/12/01 08:44:24;;;;;;;26.70;19.80;;;0.90;99.90;;;1.41;97.73;97720.69;5229908;28;20197;-82
2020/12/01 08:46:57;;;;;;;29.30;19.63;;;0.90;99.90;;;1.42;97.67;97726.59;5236286;28;20278;-85
2020/12/01 08:49:41;;;;;;;29.97;20.67;;;0.90;99.90;;;1.44;97.17;97728.50;5235689;28;20797;-83
2020/12/01 08:52:34;;;;;;;25.73;20.07;;;0.90;99.90;;;1.47;97.37;97725.38;5235537;28;20309;-84
2020/12/01 08:55:24;;;;;;;24.20;19.57;;;0.90;99.90;;;1.46;97.63;97721.06;5231989;28;20205;-84
2020/12/01 08:58:10;;;;;;;27.03;19.93;;;0.90;99.90;;;1.50;97.07;97725.66;5230711;28;20265;-84
2020/12/01 09:01:00;;;;;;;26.47;20.17;;;1.00;99.90;;;1.55;97.39;97729.47;5225380;28;20221;-83
2020/12/01 09:03:35;;;;;;;27.43;20.07;;;1.00;99.90;;;1.53;97.27;97720.88;5227429;28;20202;-81
2020/12/01 09:06:27;;;;;;;28.27;21.27;;;1.00;99.90;;;1.54;96.94;97731.06;5219571;28;20202;-82
2020/12/01 09:09:05;;;;;;;31.43;23.67;;;1.00;99.90;;;1.56;97.22;97726.19;5229217;28;20227;-83
2020/12/01 09:12:11;;;;;;;28.97;21.60;;;1.00;99.90;;;1.52;97.61;97725.03;5227319;28;20234;-83
2020/12/01 09:17:47;;;;;;;34.13;24.20;;;1.00;99.90;;;1.56;96.90;97736.25;5224201;28;20734;-80
2020/12/01 09:20:36;;;;;;;30.80;22.03;;;1.00;99.90;;;1.56;97.03;97731.22;5231988;28;20229;-84
2020/12/01 09:23:17;;;;;;;32.43;24.37;;;1.00;99.90;;;1.56;97.33;97734.63;5236963;28;20577;-84
2020/12/01 09:25:51;;;;;;;32.73;24.47;;;1.00;99.90;;;1.56;97.53;97743.81;5233662;28;20289;-82
2020/12/01 09:28:27;;;;;;;38.13;28.13;;;1.00;99.90;;;1.55;97.41;97739.53;5229177;28;20224;-81
2020/12/01 09:31:05;;;;;;;34.30;26.57;;;1.00;99.90;;;1.58;97.40;97739.81;5234188;28;20237;-83
2020/12/01 09:33:37;;;;;;;38.63;26.97;;;1.00;99.90;;;1.63;97.09;97742.72;5233676;28;20202;-83
2020/12/01 09:36:16;;;;;;;34.97;26.63;;;1.10;99.90;;;1.64;97.25;97742.88;5232322;28;20309;-84
2020/12/01 09:38:50;;;;;;;32.80;25.43;;;1.10;99.90;;;1.66;97.41;97745.50;5215345;28;20542;-84
2020/12/01 09:41:25;;;;;;;35.77;26.57;;;1.10;99.90;;;1.63;96.92;97738.59;5234569;28;20230;-83
2020/12/01 09:44:02;;;;;;;33.93;26.47;;;1.10;99.90;;;1.60;97.50;97748.38;5232093;28;20203;-84
2020/12/01 09:46:39;;;;;;;29.80;23.00;;;1.10;99.90;;;1.65;97.30;97749.69;5234879;28;20203;-84
2020/12/01 09:49:11;;;;;;;33.03;24.70;;;1.10;99.90;;;1.70;97.50;97755.13;5233158;28;20556;-85
2020/12/01 09:51:53;;;;;;;31.67;23.67;;;1.10;99.90;;;1.70;96.53;97750.97;5235030;28;20276;-85
2020/12/01 09:54:33;;;;;;;46.63;31.93;;;1.10;99.90;;;1.73;96.74;97752.88;5233342;28;20199;-84
2020/12/01 09:57:09;;;;;;;45.03;30.87;;;1.10;99.90;;;1.76;97.11;97738.03;5227627;28;20210;-84
2020/12/01 09:59:48;;;;;;;38.27;27.17;;;1.20;99.90;;;1.78;97.63;97723.94;5227376;28;20292;-84
2020/12/01 10:08:23;;;;;;;39.67;27.73;;;1.20;99.90;;;1.76;96.25;97728.84;5224252;28;20284;-84
2020/12/01 10:13:52;;;;;;;36.17;25.90;;;1.20;99.90;;;1.87;96.63;97723.88;5231298;28;20265;-84
2020/12/01 10:25:36;;;;;;;35.43;27.93;;;1.20;99.90;;;1.86;97.41;97740.63;5236469;28;20576;-83
2020/12/01 10:36:39;;;;;;;32.77;22.10;;;1.20;99.90;;;1.84;96.87;97744.66;5216436;28;20209;-82
2020/12/01 10:39:11;;;;;;;38.33;25.90;;;1.20;99.90;;;1.89;96.94;97747.56;5232333;28;20196;-82
2020/12/01 10:41:43;;;;;;;36.67;25.67;;;1.30;99.90;;;1.88;97.09;97741.63;5231443;28;20218;-82
2020/12/01 10:44:16;;;;;;;35.77;26.80;;;1.30;99.90;;;1.90;97.36;97745.19;5232060;28;20203;-82
2020/12/01 10:46:50;;;;;;;45.50;31.57;;;1.30;99.90;;;1.90;97.07;97749.34;5229036;28;20687;-82
2020/12/01 10:49:22;;;;;;;43.03;28.97;;;1.30;99.90;;;1.90;97.10;97745.19;5232202;28;20719;-82
2020/12/01 10:51:54;;;;;;;42.17;29.17;;;1.30;99.90;;;1.93;97.17;97744.56;5233376;28;20221;-82
2020/12/01 10:54:26;;;;;;;38.93;28.00;;;1.30;99.90;;;1.97;97.22;97747.47;5235351;28;20204;-82
2020/12/01 10:56:58;;;;;;;43.20;30.70;;;1.30;99.90;;;1.98;97.92;97738.31;5230756;28;20208;-82
2020/12/01 10:59:31;;;;;;;42.67;30.53;;;1.40;99.90;;;1.98;98.13;97745.88;5234321;28;20203;-82
2020/12/01 11:02:03;;;;;;;42.57;31.47;;;1.40;99.90;;;1.99;97.58;97733.38;5230439;28;20221;-82
2020/12/01 11:04:36;;;;;;;42.47;30.40;;;1.40;99.90;;;2.03;97.83;97739.56;5234019;28;20234;-82
2020/12/01 11:07:13;;;;;;;46.30;33.00;;;1.40;99.90;;;2.01;97.46;97738.56;5229218;28;21709;-81
2020/12/01 11:09:45;;;;;;;43.50;30.97;;;1.30;99.90;;;2.03;97.90;97743.00;5230124;28;20254;-82
2020/12/01 11:12:18;;;;;;;39.97;28.60;;;1.30;99.90;;;2.03;97.71;97734.53;5228525;28;20231;-82
2020/12/01 11:14:51;;;;;;;39.53;28.40;;;1.40;99.90;;;1.99;98.00;97732.50;5230038;28;20208;-81
2020/12/01 11:17:23;;;;;;;47.57;30.40;;;1.30;99.90;;;2.00;98.12;97739.31;5227677;28;20210;-81
2020/12/01 11:19:55;;;;;;;42.13;28.23;;;1.30;99.90;;;2.01;98.09;97736.06;5232377;28;20203;-81
2020/12/01 11:22:28;;;;;;;40.83;26.10;;;1.30;99.90;;;2.05;97.95;97742.25;5230778;28;20311;-82
2020/12/01 11:25:00;;;;;;;38.23;25.23;;;1.40;99.90;;;2.04;97.85;97746.41;5229028;28;20283;-81
2020/12/01 11:27:32;;;;;;;35.87;25.73;;;1.30;99.90;;;2.06;98.30;97749.94;5228345;28;20627;-81
2020/12/01 11:30:06;;;;;;;37.93;25.77;;;1.30;99.90;;;2.02;98.04;97748.78;5228690;28;20231;-81
2020/12/01 11:32:38;;;;;;;36.77;25.87;;;1.30;99.90;;;1.97;97.63;97752.50;5229906;28;20198;-81